Time;durP1;ratioP1;P1;durP2;ratioP2;P2;SDS_P1;SDS_P2;PMS_P1;PMS_P2;Temp;Humidity;BMP_temperature;BMP_pressure;BME280_temperature;BME280_humidity;BME280_pressure;Samples;Min_cycle;Max_cycle;Signal;HPM_P1;HPM_P2
2021/09/21 00:00:29;;;;;;;26.13;20.30;;;13.10;76.10;;;;;;5012968;28;20101;-82
2021/09/21 00:02:56;;;;;;;20.15;17.13;;;13.10;76.00;;;;;;5013030;28;20077;-82
2021/09/21 00:05:23;;;;;;;26.55;18.65;;;13.00;75.90;;;;;;5013056;28;20050;-82
2021/09/21 00:07:50;;;;;;;23.60;17.98;;;13.00;76.00;;;;;;5011646;28;20108;-82
2021/09/21 00:10:18;;;;;;;23.50;18.13;;;13.00;75.90;;;;;;5015097;28;20573;-82
2021/09/21 00:12:45;;;;;;;25.58;18.48;;;13.00;75.90;;;;;;5015454;28;20062;-82
2021/09/21 00:15:17;;;;;;;26.75;18.65;;;13.00;75.90;;;;;;5015636;28;20049;-82
2021/09/21 00:17:45;;;;;;;24.77;18.10;;;12.90;76.00;;;;;;5015834;28;20099;-82
2021/09/21 00:20:13;;;;;;;22.40;17.58;;;12.90;76.00;;;;;;4996405;28;20403;-82
2021/09/21 00:22:42;;;;;;;20.75;17.35;;;12.90;76.00;;;;;;5013055;28;20042;-82
2021/09/21 00:25:10;;;;;;;21.27;16.63;;;12.90;75.90;;;;;;5014780;28;20452;-82
2021/09/21 00:27:38;;;;;;;22.70;17.10;;;12.90;75.90;;;;;;5015425;28;20112;-82
2021/09/21 00:30:06;;;;;;;21.95;17.25;;;12.80;75.80;;;;;;5016685;28;20046;-82
2021/09/21 00:32:33;;;;;;;20.65;17.13;;;12.80;75.80;;;;;;5019155;28;20620;-82
2021/09/21 00:35:01;;;;;;;19.33;17.00;;;12.80;75.80;;;;;;5015717;28;20081;-82
2021/09/21 00:37:28;;;;;;;23.02;17.17;;;12.70;75.70;;;;;;5017302;28;20506;-82
2021/09/21 00:39:54;;;;;;;22.15;17.13;;;12.70;75.70;;;;;;5019014;28;20502;-82
2021/09/21 00:42:28;;;;;;;20.85;17.98;;;12.70;75.70;;;;;;5018691;28;20115;-82
2021/09/21 00:44:57;;;;;;;25.15;18.67;;;12.60;75.70;;;;;;5019059;28;20046;-82
2021/09/21 00:47:25;;;;;;;22.27;17.15;;;12.60;75.80;;;;;;5018671;28;20072;-82
2021/09/21 00:49:52;;;;;;;21.98;17.52;;;12.60;75.80;;;;;;4998008;28;20091;-82
2021/09/21 00:52:19;;;;;;;22.38;16.42;;;12.50;75.80;;;;;;5017986;28;20045;-82
2021/09/21 00:54:47;;;;;;;18.65;15.63;;;12.50;75.70;;;;;;5018861;28;20497;-82
2021/09/21 00:57:13;;;;;;;21.60;18.00;;;12.50;75.80;;;;;;5018401;28;20111;-82
2021/09/21 00:59:40;;;;;;;26.85;17.33;;;12.40;75.70;;;;;;5018707;28;20103;-83
2021/09/21 01:02:08;;;;;;;19.90;16.25;;;12.40;75.70;;;;;;5016233;28;20054;-82
2021/09/21 01:04:38;;;;;;;30.45;17.25;;;12.40;75.80;;;;;;5016206;28;20137;-82
2021/09/21 01:07:05;;;;;;;21.02;17.30;;;12.40;75.80;;;;;;5017847;28;20050;-82
2021/09/21 01:09:32;;;;;;;22.08;16.90;;;12.40;75.80;;;;;;5018614;28;20502;-83
2021/09/21 01:12:00;;;;;;;20.77;15.88;;;12.40;75.80;;;;;;5018165;28;20054;-82
2021/09/21 01:14:27;;;;;;;22.38;18.02;;;12.30;75.90;;;;;;5018545;28;20041;-82
2021/09/21 01:16:55;;;;;;;22.27;16.85;;;12.30;75.90;;;;;;5015494;28;20050;-82
2021/09/21 01:19:22;;;;;;;21.08;15.93;;;12.30;75.90;;;;;;5028744;28;20057;-82
2021/09/21 01:21:50;;;;;;;19.92;15.95;;;12.20;75.90;;;;;;5018409;28;20057;-82
2021/09/21 01:24:18;;;;;;;17.67;15.57;;;12.20;75.90;;;;;;5018325;28;20058;-82
2021/09/21 01:26:46;;;;;;;18.52;16.23;;;12.20;75.90;;;;;;5018004;28;20046;-83
2021/09/21 01:29:13;;;;;;;21.30;16.95;;;12.20;75.80;;;;;;5016454;28;20050;-82
2021/09/21 01:31:41;;;;;;;20.55;16.75;;;12.10;75.90;;;;;;5015422;28;20049;-82
2021/09/21 01:34:09;;;;;;;23.50;18.75;;;12.10;75.90;;;;;;5017072;28;20053;-82
2021/09/21 01:36:36;;;;;;;20.23;16.15;;;12.10;75.90;;;;;;5018139;28;20045;-82
2021/09/21 01:39:03;;;;;;;18.98;16.17;;;12.10;75.90;;;;;;5017988;28;20057;-82
2021/09/21 01:41:30;;;;;;;20.73;15.77;;;12.00;75.90;;;;;;5017527;28;20041;-82
2021/09/21 01:43:57;;;;;;;19.75;15.55;;;12.00;76.00;;;;;;5014003;28;20045;-82
2021/09/21 01:46:24;;;;;;;22.33;18.92;;;12.00;76.00;;;;;;5016253;28;20049;-83
2021/09/21 01:48:52;;;;;;;20.95;17.08;;;12.00;76.00;;;;;;5013855;28;20050;-82
2021/09/21 01:51:39;;;;;;;30.23;19.35;;;11.90;76.10;;;;;;5014663;28;20100;-82
2021/09/21 01:54:21;;;;;;;19.90;17.00;;;11.90;76.10;;;;;;5014379;28;20049;-82
2021/09/21 01:59:33;;;;;;;25.08;17.40;;;11.90;76.20;;;;;;5014684;28;20065;-82
2021/09/21 02:02:00;;;;;;;22.45;18.98;;;11.90;76.20;;;;;;5014677;28;20564;-83
2021/09/21 02:04:27;;;;;;;22.17;18.08;;;11.90;76.30;;;;;;5012319;28;20080;-83
2021/09/21 02:06:54;;;;;;;20.98;18.17;;;11.80;76.30;;;;;;5017500;28;20569;-82
2021/09/21 02:09:21;;;;;;;26.55;16.98;;;11.80;76.30;;;;;;5017059;28;20053;-82
2021/09/21 02:11:49;;;;;;;20.88;17.25;;;11.80;76.30;;;;;;5017295;28;20112;-83
2021/09/21 02:14:18;;;;;;;23.40;17.80;;;11.80;76.30;;;;;;5015975;28;20041;-82
2021/09/21 02:16:46;;;;;;;22.58;17.02;;;11.80;76.30;;;;;;5014052;28;22776;-82
2021/09/21 02:19:13;;;;;;;19.20;15.48;;;11.70;76.10;;;;;;5016254;28;20053;-82
2021/09/21 02:21:40;;;;;;;19.70;16.48;;;11.70;76.00;;;;;;5017209;28;20112;-82
2021/09/21 02:24:07;;;;;;;20.35;16.15;;;11.70;75.90;;;;;;5016960;28;20100;-83
2021/09/21 02:26:34;;;;;;;21.65;16.90;;;11.70;76.00;;;;;;5017282;28;20061;-82
2021/09/21 02:29:01;;;;;;;17.25;14.77;;;11.60;75.90;;;;;;5013724;28;20046;-83
2021/09/21 02:31:28;;;;;;;18.42;15.98;;;11.60;76.00;;;;;;5015217;28;20092;-83
2021/09/21 02:33:55;;;;;;;20.95;15.80;;;11.60;75.90;;;;;;5016889;28;20653;-82
2021/09/21 02:36:22;;;;;;;21.58;14.88;;;11.60;75.90;;;;;;5017132;28;20057;-83
2021/09/21 02:38:49;;;;;;;20.98;14.45;;;11.60;75.90;;;;;;5016743;28;20189;-82
2021/09/21 02:41:16;;;;;;;18.95;16.08;;;11.50;75.80;;;;;;5015470;28;20061;-83
2021/09/21 02:43:43;;;;;;;19.67;14.30;;;11.50;75.70;;;;;;5013781;28;20053;-83
2021/09/21 02:46:10;;;;;;;22.70;16.45;;;11.50;75.70;;;;;;5015897;28;20058;-83
2021/09/21 02:48:37;;;;;;;18.02;14.82;;;11.50;75.70;;;;;;5016796;28;20080;-83
2021/09/21 02:51:04;;;;;;;23.90;14.80;;;11.50;75.80;;;;;;5016705;28;20057;-83
2021/09/21 02:53:31;;;;;;;20.60;15.30;;;11.50;75.70;;;;;;5016005;28;20099;-83
2021/09/21 02:55:59;;;;;;;18.08;13.65;;;11.40;75.70;;;;;;4995499;28;20506;-82
2021/09/21 02:58:26;;;;;;;18.83;14.75;;;11.40;75.70;;;;;;5015152;28;20131;-82
2021/09/21 03:00:55;;;;;;;17.88;13.95;;;11.40;75.70;;;;;;5016598;28;20103;-83
2021/09/21 03:03:27;;;;;;;22.27;15.70;;;11.40;75.70;;;;;;5016492;28;20544;-83
2021/09/21 03:06:07;;;;;;;21.00;14.30;;;11.40;75.70;;;;;;5016628;28;20046;-83
2021/09/21 03:08:36;;;;;;;16.92;15.00;;;11.40;75.60;;;;;;5016427;28;20517;-83
2021/09/21 03:11:27;;;;;;;18.60;15.20;;;11.30;75.70;;;;;;5013261;28;20104;-83
2021/09/21 03:19:06;;;;;;;18.65;14.52;;;11.20;75.80;;;;;;5029002;28;20111;-83
2021/09/21 03:21:33;;;;;;;19.80;14.70;;;11.20;75.80;;;;;;5015096;28;20057;-83
2021/09/21 03:24:00;;;;;;;16.83;13.52;;;11.20;75.90;;;;;;5016342;28;20473;-83
2021/09/21 03:26:27;;;;;;;17.92;13.98;;;11.20;75.80;;;;;;5016354;28;20115;-83
2021/09/21 03:28:54;;;;;;;16.08;13.75;;;11.20;75.80;;;;;;5012112;28;20103;-83
2021/09/21 03:31:21;;;;;;;15.40;12.68;;;11.20;75.80;;;;;;5026538;28;20049;-82
2021/09/21 03:33:48;;;;;;;16.60;12.75;;;11.10;75.90;;;;;;5013446;28;20049;-82
2021/09/21 03:36:15;;;;;;;17.50;14.02;;;11.10;75.80;;;;;;5012904;28;20469;-83
2021/09/21 03:38:42;;;;;;;16.75;12.82;;;11.10;75.90;;;;;;5013286;28;20046;-83
2021/09/21 03:41:08;;;;;;;21.45;14.60;;;11.10;76.00;;;;;;5013229;28;20088;-83
2021/09/21 03:43:35;;;;;;;19.85;14.07;;;11.10;76.00;;;;;;5011326;28;20104;-82
2021/09/21 03:46:02;;;;;;;19.38;13.25;;;11.00;76.00;;;;;;5012961;28;20054;-83
2021/09/21 03:48:29;;;;;;;19.40;13.68;;;11.00;76.10;;;;;;5013128;28;20045;-82
2021/09/21 03:50:57;;;;;;;17.58;13.80;;;10.90;76.10;;;;;;5012708;28;20097;-83
2021/09/21 03:53:24;;;;;;;14.75;12.20;;;10.90;76.20;;;;;;5013098;28;20411;-83
2021/09/21 03:55:51;;;;;;;18.23;12.07;;;10.90;76.20;;;;;;5012710;28;20112;-82
2021/09/21 03:58:18;;;;;;;17.08;13.13;;;10.90;76.30;;;;;;5010949;28;20042;-83
2021/09/21 04:00:45;;;;;;;15.88;11.57;;;10.90;76.30;;;;;;5012962;28;20053;-83
2021/09/21 04:03:12;;;;;;;16.00;13.68;;;10.90;76.30;;;;;;5015947;28;20073;-82
2021/09/21 04:05:41;;;;;;;16.25;13.20;;;10.90;76.30;;;;;;5017452;28;20076;-83
2021/09/21 04:08:08;;;;;;;18.70;13.15;;;10.90;76.30;;;;;;5017373;28;20038;-83
2021/09/21 04:10:35;;;;;;;19.95;12.82;;;10.80;76.30;;;;;;5017302;28;20108;-83
2021/09/21 04:13:01;;;;;;;15.80;12.18;;;10.90;76.30;;;;;;5016886;28;20049;-83
2021/09/21 04:15:28;;;;;;;16.55;12.80;;;10.80;76.30;;;;;;5016558;28;20112;-83
2021/09/21 04:17:55;;;;;;;18.02;13.80;;;10.80;76.30;;;;;;5016574;28;20126;-83
2021/09/21 04:20:22;;;;;;;18.67;13.90;;;10.80;76.30;;;;;;5016149;28;20050;-83
2021/09/21 04:22:49;;;;;;;16.13;13.30;;;10.80;76.30;;;;;;5015920;28;20112;-83
2021/09/21 04:25:16;;;;;;;20.38;14.52;;;10.80;76.30;;;;;;5014594;28;20588;-83
2021/09/21 04:27:43;;;;;;;21.13;13.77;;;10.70;76.30;;;;;;5016378;28;20042;-83
2021/09/21 04:30:12;;;;;;;17.00;13.25;;;10.70;76.40;;;;;;5016296;28;20062;-83
2021/09/21 04:32:39;;;;;;;15.90;12.90;;;10.70;76.40;;;;;;5016281;28;20095;-83
2021/09/21 04:35:07;;;;;;;17.55;13.02;;;10.60;76.40;;;;;;5015857;28;20052;-83
2021/09/21 04:37:33;;;;;;;16.38;12.52;;;10.60;76.50;;;;;;5014396;28;20053;-83
2021/09/21 04:40:00;;;;;;;20.27;14.52;;;10.70;76.50;;;;;;5015939;28;20104;-83
2021/09/21 04:42:27;;;;;;;20.40;15.27;;;10.60;76.50;;;;;;5017291;28;20119;-83
2021/09/21 04:44:55;;;;;;;21.83;16.23;;;10.60;76.50;;;;;;5016099;28;20140;-83
2021/09/21 04:47:22;;;;;;;20.65;16.65;;;10.60;76.50;;;;;;5018522;28;20046;-83
2021/09/21 04:49:49;;;;;;;21.55;15.68;;;10.60;76.60;;;;;;5014623;28;20115;-83
2021/09/21 04:52:16;;;;;;;15.40;13.55;;;10.50;76.60;;;;;;5018139;28;20099;-83
2021/09/21 04:54:43;;;;;;;16.60;14.55;;;10.50;76.50;;;;;;5011807;28;20107;-83
2021/09/21 04:57:11;;;;;;;18.45;14.05;;;10.50;76.50;;;;;;5020893;28;20046;-83
2021/09/21 04:59:39;;;;;;;17.75;14.52;;;10.50;76.40;;;;;;5015885;28;20045;-83
2021/09/21 05:02:06;;;;;;;19.50;15.13;;;10.50;76.30;;;;;;5015686;28;20111;-83
2021/09/21 05:04:33;;;;;;;16.05;14.07;;;10.50;76.30;;;;;;5013714;28;20134;-83
2021/09/21 05:07:00;;;;;;;17.38;13.55;;;10.40;76.30;;;;;;5015524;28;20050;-83
2021/09/21 05:09:27;;;;;;;16.58;13.15;;;10.40;76.30;;;;;;5015541;28;20561;-83
2021/09/21 05:11:54;;;;;;;17.70;13.68;;;10.40;76.20;;;;;;5015577;28;20054;-83
2021/09/21 05:14:21;;;;;;;16.88;13.35;;;10.40;76.20;;;;;;5015579;28;20092;-82
2021/09/21 05:16:48;;;;;;;15.88;12.75;;;10.40;76.10;;;;;;5014036;28;20053;-83
2021/09/21 05:19:15;;;;;;;19.52;13.85;;;10.40;76.10;;;;;;5013615;28;20077;-83
2021/09/21 05:21:42;;;;;;;16.80;13.82;;;10.40;76.10;;;;;;5018288;28;20112;-83
2021/09/21 05:24:08;;;;;;;16.10;13.30;;;10.40;76.00;;;;;;5018352;28;20046;-83
2021/09/21 05:26:35;;;;;;;17.67;13.85;;;10.40;76.00;;;;;;5018294;28;20107;-82
2021/09/21 05:29:03;;;;;;;20.13;14.73;;;10.30;76.00;;;;;;5015131;28;20049;-83
2021/09/21 05:31:31;;;;;;;15.27;13.07;;;10.30;76.00;;;;;;5015459;28;20465;-83
2021/09/21 05:33:58;;;;;;;16.77;13.57;;;10.30;76.00;;;;;;5017726;28;20050;-83
2021/09/21 05:36:25;;;;;;;17.90;14.63;;;10.30;76.10;;;;;;5018001;28;20104;-83
2021/09/21 05:38:52;;;;;;;18.20;14.35;;;10.30;76.10;;;;;;5000629;28;20588;-83
2021/09/21 05:41:19;;;;;;;18.40;13.52;;;10.20;76.10;;;;;;5017107;28;20087;-83
2021/09/21 05:43:46;;;;;;;18.52;15.35;;;10.20;76.10;;;;;;5014432;28;20054;-83
2021/09/21 05:46:13;;;;;;;18.77;15.43;;;10.20;76.20;;;;;;5016658;28;20061;-83
2021/09/21 05:48:40;;;;;;;20.90;16.25;;;10.20;76.20;;;;;;5017881;28;20061;-83
2021/09/21 05:51:07;;;;;;;18.20;14.60;;;10.20;76.40;;;;;;5017674;28;20481;-83
2021/09/21 05:53:33;;;;;;;19.15;15.32;;;10.20;76.50;;;;;;5017893;28;20049;-83
2021/09/21 05:56:01;;;;;;;19.95;15.98;;;10.10;76.50;;;;;;5014370;28;20112;-83
2021/09/21 05:58:28;;;;;;;18.27;14.93;;;10.10;76.60;;;;;;5015503;28;20085;-83
2021/09/21 06:00:57;;;;;;;17.48;15.02;;;10.10;76.60;;;;;;5017374;28;20108;-83
2021/09/21 06:03:25;;;;;;;17.58;15.15;;;10.10;76.70;;;;;;5014955;28;20042;-83
2021/09/21 06:05:53;;;;;;;20.02;13.70;;;10.00;76.70;;;;;;5017596;28;20077;-83
2021/09/21 06:08:20;;;;;;;20.98;15.98;;;10.10;76.80;;;;;;5015669;28;20045;-82
2021/09/21 06:10:47;;;;;;;18.00;14.38;;;10.00;76.90;;;;;;5027527;28;20049;-83
2021/09/21 06:13:14;;;;;;;21.10;16.95;;;10.00;77.00;;;;;;5031797;28;20086;-83
2021/09/21 06:15:41;;;;;;;23.92;18.00;;;10.10;77.00;;;;;;5026929;28;20049;-84
2021/09/21 06:18:08;;;;;;;18.73;15.23;;;10.10;77.10;;;;;;5027753;28;20050;-84
2021/09/21 06:20:36;;;;;;;25.83;18.50;;;10.10;77.10;;;;;;5027089;28;20191;-84
2021/09/21 06:23:03;;;;;;;28.88;17.85;;;10.10;77.20;;;;;;5027524;28;20052;-83
2021/09/21 06:25:30;;;;;;;20.38;15.60;;;10.10;77.30;;;;;;5029782;28;20050;-84
2021/09/21 06:27:57;;;;;;;24.52;17.52;;;10.00;77.40;;;;;;5028317;28;20046;-83
2021/09/21 06:30:27;;;;;;;21.80;17.70;;;10.10;77.50;;;;;;5026683;28;20555;-83
2021/09/21 06:32:55;;;;;;;20.63;16.77;;;10.10;77.60;;;;;;5027137;28;20515;-83
2021/09/21 06:35:22;;;;;;;24.33;18.13;;;10.10;77.70;;;;;;5027096;28;20092;-83
2021/09/21 06:37:49;;;;;;;28.90;19.98;;;10.10;77.80;;;;;;5027782;28;20100;-83
2021/09/21 06:40:17;;;;;;;23.35;20.17;;;10.10;77.90;;;;;;5030977;28;20053;-82
2021/09/21 06:42:44;;;;;;;26.27;19.80;;;10.10;78.10;;;;;;5026922;28;20042;-83
2021/09/21 06:45:15;;;;;;;28.42;20.75;;;10.10;78.20;;;;;;5026391;28;20053;-83
2021/09/21 06:47:43;;;;;;;26.50;20.65;;;10.10;78.20;;;;;;5026883;28;20103;-84
2021/09/21 06:50:12;;;;;;;23.08;18.80;;;10.10;78.40;;;;;;5028753;28;20453;-83
2021/09/21 06:52:38;;;;;;;26.10;20.13;;;10.20;78.50;;;;;;5029166;28;20054;-82
2021/09/21 06:55:07;;;;;;;31.75;24.20;;;10.20;78.70;;;;;;5029072;28;20501;-83
2021/09/21 06:57:34;;;;;;;34.15;21.65;;;10.20;78.90;;;;;;5026605;28;20391;-82
2021/09/21 07:00:03;;;;;;;27.55;22.98;;;10.30;79.00;;;;;;5026274;28;20099;-82
2021/09/21 07:02:30;;;;;;;38.70;24.27;;;10.30;79.10;;;;;;5026614;28;20049;-82
2021/09/21 07:04:57;;;;;;;27.15;21.10;;;10.30;79.30;;;;;;5026708;28;20582;-82
2021/09/21 07:07:27;;;;;;;21.88;19.23;;;10.40;79.40;;;;;;5029663;28;20092;-83
2021/09/21 07:09:54;;;;;;;31.88;22.48;;;10.40;79.40;;;;;;5027955;28;20049;-83
2021/09/21 07:12:21;;;;;;;28.02;24.25;;;10.40;79.40;;;;;;5025582;28;20037;-83
2021/09/21 07:14:48;;;;;;;28.48;22.65;;;10.50;79.50;;;;;;5025424;28;20080;-83
2021/09/21 07:17:15;;;;;;;27.13;20.25;;;10.50;79.60;;;;;;5025705;28;20104;-82
2021/09/21 07:19:42;;;;;;;26.60;20.10;;;10.60;79.60;;;;;;5028069;28;20076;-83
2021/09/21 07:22:09;;;;;;;32.90;23.15;;;10.70;79.60;;;;;;5030320;28;20107;-82
2021/09/21 07:24:35;;;;;;;25.80;21.52;;;10.80;79.60;;;;;;5027145;28;20107;-82
2021/09/21 07:27:02;;;;;;;26.25;20.70;;;10.80;79.60;;;;;;5027541;28;20049;-83
2021/09/21 07:29:30;;;;;;;29.42;21.52;;;10.80;79.60;;;;;;5027371;28;20107;-83
2021/09/21 07:31:57;;;;;;;29.85;22.48;;;10.90;79.50;;;;;;5027253;28;20053;-82
2021/09/21 07:34:24;;;;;;;30.55;22.63;;;10.90;79.60;;;;;;5031348;28;20081;-83
2021/09/21 07:36:52;;;;;;;29.88;20.98;;;11.00;79.60;;;;;;5027203;28;20099;-82
2021/09/21 07:39:23;;;;;;;26.95;18.88;;;11.00;79.60;;;;;;5028458;28;20051;-83
2021/09/21 07:41:51;;;;;;;28.23;20.60;;;11.10;79.70;;;;;;5031165;28;20100;-82
2021/09/21 07:44:18;;;;;;;23.13;18.50;;;11.10;79.70;;;;;;5031806;28;20053;-82
2021/09/21 07:46:45;;;;;;;31.25;20.85;;;11.20;79.70;;;;;;5032501;28;20108;-82
2021/09/21 07:49:12;;;;;;;30.55;20.70;;;11.20;79.70;;;;;;5034694;28;20180;-82
2021/09/21 07:51:39;;;;;;;30.58;21.70;;;11.30;79.70;;;;;;5031399;28;20046;-83
2021/09/21 07:54:08;;;;;;;25.63;20.33;;;11.40;79.80;;;;;;5031109;28;20464;-83
2021/09/21 07:56:35;;;;;;;25.60;19.95;;;11.40;79.90;;;;;;5030776;28;20050;-82
2021/09/21 07:59:04;;;;;;;29.27;19.40;;;11.50;79.90;;;;;;5013756;28;20046;-82
2021/09/21 08:01:33;;;;;;;22.92;17.33;;;11.60;80.10;;;;;;5033146;28;20501;-81
2021/09/21 08:04:05;;;;;;;24.50;15.90;;;11.70;79.90;;;;;;5033606;28;20124;-82
2021/09/21 08:06:33;;;;;;;21.92;14.07;;;11.80;79.70;;;;;;5030863;28;20100;-82
2021/09/21 08:09:00;;;;;;;18.65;14.27;;;11.90;79.30;;;;;;5032510;28;20056;-81
2021/09/21 08:11:27;;;;;;;17.48;11.98;;;11.90;78.70;;;;;;5030809;28;20041;-82
2021/09/21 08:13:55;;;;;;;16.15;12.43;;;12.00;78.20;;;;;;5015538;28;20458;-82
2021/09/21 08:16:22;;;;;;;16.30;12.25;;;12.10;77.30;;;;;;5030952;28;20049;-82
2021/09/21 08:18:50;;;;;;;15.65;10.93;;;12.20;76.60;;;;;;5031489;28;20115;-82
2021/09/21 08:21:17;;;;;;;13.45;10.18;;;12.30;75.60;;;;;;5030592;28;20061;-82
2021/09/21 08:23:44;;;;;;;14.68;10.18;;;12.40;74.40;;;;;;5030657;28;20105;-82
2021/09/21 08:26:11;;;;;;;17.05;9.95;;;12.40;74.30;;;;;;5030103;28;20108;-84
2021/09/21 08:28:38;;;;;;;13.90;10.20;;;12.60;74.10;;;;;;5016942;28;20045;-82
2021/09/21 08:31:05;;;;;;;14.70;9.70;;;12.70;74.20;;;;;;5032598;28;20053;-82
2021/09/21 08:33:32;;;;;;;18.55;10.38;;;12.70;73.80;;;;;;5030387;28;20107;-82
2021/09/21 08:36:19;;;;;;;18.58;8.90;;;12.80;73.60;;;;;;5030613;28;20045;-82
2021/09/21 08:38:46;;;;;;;11.52;9.55;;;12.90;73.80;;;;;;5030298;28;20821;-82
2021/09/21 08:41:13;;;;;;;10.82;8.05;;;13.00;73.80;;;;;;5030287;28;20108;-82
2021/09/21 08:43:40;;;;;;;13.05;7.82;;;13.10;73.70;;;;;;5032148;28;20505;-82
2021/09/21 08:46:07;;;;;;;11.50;8.02;;;13.20;73.20;;;;;;5032089;28;20476;-82
2021/09/21 08:48:34;;;;;;;14.80;8.18;;;13.30;72.60;;;;;;5029358;28;20054;-82
2021/09/21 08:51:01;;;;;;;16.98;7.82;;;13.40;72.60;;;;;;5029577;28;20053;-82
2021/09/21 08:53:28;;;;;;;10.98;7.00;;;13.50;72.50;;;;;;5030095;28;20107;-83
2021/09/21 08:55:56;;;;;;;10.43;6.90;;;13.60;72.50;;;;;;5030226;28;20053;-83
2021/09/21 08:58:25;;;;;;;11.15;7.50;;;13.70;72.00;;;;;;5030178;28;20457;-83
2021/09/21 09:00:52;;;;;;;12.07;6.50;;;13.80;71.40;;;;;;5030872;28;20509;-82
2021/09/21 09:03:20;;;;;;;10.68;5.53;;;13.90;70.50;;;;;;5029956;28;20045;-82
2021/09/21 09:05:50;;;;;;;14.48;6.03;;;14.00;69.40;;;;;;5030066;28;20049;-82
2021/09/21 09:08:30;;;;;;;9.80;6.13;;;14.10;68.40;;;;;;5029991;28;20045;-83
2021/09/21 09:11:18;;;;;;;10.68;5.97;;;14.30;67.60;;;;;;5014807;28;20132;-82
2021/09/21 09:13:49;;;;;;;11.68;6.07;;;14.40;67.50;;;;;;5031125;28;20053;-83
2021/09/21 09:16:18;;;;;;;8.63;5.40;;;14.50;67.70;;;;;;5033253;28;20049;-83
2021/09/21 09:18:47;;;;;;;8.35;5.38;;;14.60;66.70;;;;;;5029065;28;20045;-83
2021/09/21 09:21:18;;;;;;;9.68;6.05;;;14.70;66.90;;;;;;5029381;28;20588;-83
2021/09/21 09:23:51;;;;;;;9.88;4.90;;;14.80;67.20;;;;;;5029125;28;20551;-83
2021/09/21 09:26:23;;;;;;;10.17;5.37;;;14.90;67.50;;;;;;5031477;28;20099;-84
2021/09/21 09:28:52;;;;;;;14.68;5.38;;;15.00;67.70;;;;;;5030121;28;20412;-83
2021/09/21 09:31:27;;;;;;;7.18;4.68;;;15.20;67.60;;;;;;5033476;28;20076;-82
2021/09/21 09:34:06;;;;;;;10.35;5.28;;;15.40;67.00;;;;;;5030902;28;20073;-83
2021/09/21 09:36:47;;;;;;;10.15;5.05;;;15.40;65.90;;;;;;5028856;28;20057;-83
2021/09/21 09:39:17;;;;;;;10.80;5.00;;;15.60;65.70;;;;;;5024566;28;20041;-82
2021/09/21 09:41:45;;;;;;;8.25;5.07;;;15.70;65.30;;;;;;5029785;28;20457;-82
2021/09/21 09:44:15;;;;;;;8.93;4.97;;;15.80;65.00;;;;;;5011577;28;20068;-82
2021/09/21 09:46:52;;;;;;;10.43;5.28;;;15.90;64.00;;;;;;5030919;28;20049;-82
2021/09/21 09:49:27;;;;;;;7.32;4.43;;;16.00;64.00;;;;;;5033314;28;20497;-82
2021/09/21 09:52:02;;;;;;;8.15;4.68;;;16.10;63.90;;;;;;5030402;28;20049;-82
2021/09/21 09:54:31;;;;;;;8.38;4.80;;;16.20;63.60;;;;;;5028563;28;20449;-82
2021/09/21 09:56:58;;;;;;;8.95;5.25;;;16.30;62.60;;;;;;5029111;28;20104;-82
2021/09/21 09:59:28;;;;;;;10.27;5.72;;;16.40;61.60;;;;;;5028477;28;20046;-83
2021/09/21 10:01:55;;;;;;;8.77;5.05;;;16.40;60.90;;;;;;5013886;28;20048;-83
2021/09/21 10:04:23;;;;;;;7.53;5.25;;;16.50;59.50;;;;;;5028853;28;20111;-82
2021/09/21 10:06:50;;;;;;;8.18;4.93;;;16.60;59.60;;;;;;5028391;28;20065;-82
2021/09/21 10:09:19;;;;;;;10.52;5.63;;;16.70;59.90;;;;;;5032366;28;20123;-82
2021/09/21 10:11:49;;;;;;;9.07;5.60;;;16.80;60.30;;;;;;5029055;28;20461;-82
2021/09/21 10:14:19;;;;;;;6.88;4.43;;;16.80;59.70;;;;;;5028160;28;20057;-82
2021/09/21 10:16:50;;;;;;;7.80;5.15;;;16.90;59.30;;;;;;5029637;28;20042;-82
2021/09/21 10:19:19;;;;;;;7.35;5.43;;;16.90;59.60;;;;;;5033013;28;20052;-82
2021/09/21 10:21:47;;;;;;;8.40;5.60;;;17.00;59.90;;;;;;5027934;28;20107;-83
2021/09/21 10:24:14;;;;;;;7.80;6.10;;;17.10;60.00;;;;;;5028700;28;20049;-83
2021/09/21 10:26:44;;;;;;;8.93;6.22;;;17.30;59.10;;;;;;5028242;28;20465;-82
2021/09/21 10:29:14;;;;;;;7.63;5.47;;;17.40;59.30;;;;;;5028311;28;20046;-82
2021/09/21 10:31:41;;;;;;;8.77;5.80;;;17.40;59.20;;;;;;5030404;28;20099;-83
2021/09/21 10:34:13;;;;;;;8.73;5.60;;;17.50;58.90;;;;;;5030915;28;20497;-82
2021/09/21 10:36:47;;;;;;;11.25;5.28;;;17.60;58.40;;;;;;5027583;28;20095;-82
2021/09/21 10:39:15;;;;;;;11.68;6.13;;;17.70;58.50;;;;;;5028327;28;20054;-83
2021/09/21 10:42:09;;;;;;;11.23;6.75;;;17.80;57.80;;;;;;5028175;28;20456;-83
2021/09/21 10:44:48;;;;;;;;;;;17.90;56.50;;;;;;5027484;28;20045;-82
2021/09/21 10:47:38;;;;;;;8.00;5.70;;;17.90;56.40;;;;;;5027936;28;20536;-82
2021/09/21 10:50:17;;;;;;;9.18;6.10;;;18.00;57.00;;;;;;5015518;28;20049;-82
2021/09/21 10:52:45;;;;;;;11.18;6.72;;;18.20;57.20;;;;;;5029127;28;20103;-83
2021/09/21 10:55:17;;;;;;;11.20;6.68;;;18.20;56.20;;;;;;5030654;28;20049;-82
2021/09/21 10:57:45;;;;;;;10.23;6.22;;;18.30;56.20;;;;;;5027665;28;20057;-82
2021/09/21 11:00:15;;;;;;;8.35;6.43;;;18.40;56.10;;;;;;5027581;28;20045;-83
2021/09/21 11:02:45;;;;;;;8.88;6.80;;;18.40;56.60;;;;;;5027762;28;20103;-82
2021/09/21 11:05:17;;;;;;;7.90;6.15;;;18.50;56.30;;;;;;5027594;28;20054;-82
2021/09/21 11:07:59;;;;;;;8.57;6.75;;;18.50;55.20;;;;;;5029311;28;20084;-83
2021/09/21 11:10:32;;;;;;;9.40;6.53;;;18.60;55.40;;;;;;5027714;28;20564;-82
2021/09/21 11:12:59;;;;;;;12.07;7.90;;;18.70;55.40;;;;;;5011231;28;20465;-83
2021/09/21 11:15:28;;;;;;;16.30;8.98;;;18.70;54.70;;;;;;5027342;28;20046;-83
2021/09/21 11:18:05;;;;;;;13.88;8.30;;;18.70;54.90;;;;;;5027743;28;20498;-82
2021/09/21 11:20:44;;;;;;;9.52;7.18;;;18.80;54.70;;;;;;5026863;28;20049;-82
2021/09/21 11:23:12;;;;;;;11.48;8.35;;;18.80;53.90;;;;;;5029596;28;20497;-82
2021/09/21 11:25:39;;;;;;;14.05;9.02;;;18.90;53.80;;;;;;5030047;28;20417;-82
2021/09/21 11:28:06;;;;;;;11.13;8.02;;;18.90;55.00;;;;;;5029664;28;20049;-84
2021/09/21 11:30:33;;;;;;;13.05;8.65;;;18.90;54.70;;;;;;5029132;28;20060;-83
2021/09/21 11:33:13;;;;;;;9.57;7.45;;;19.00;55.10;;;;;;5027557;28;20049;-83
2021/09/21 11:35:48;;;;;;;9.27;7.45;;;19.00;55.20;;;;;;5027008;28;20472;-82
2021/09/21 11:38:16;;;;;;;12.10;7.40;;;19.10;55.00;;;;;;5022567;28;20100;-83
2021/09/21 11:40:44;;;;;;;10.18;8.20;;;19.20;54.70;;;;;;5029062;28;20053;-82
2021/09/21 11:43:12;;;;;;;9.55;7.80;;;19.30;54.70;;;;;;5030137;28;20587;-83
2021/09/21 11:45:41;;;;;;;12.85;7.88;;;19.40;55.00;;;;;;5027575;28;20494;-82
2021/09/21 11:48:12;;;;;;;9.13;7.45;;;19.40;54.80;;;;;;5027123;28;20111;-83
2021/09/21 11:50:41;;;;;;;10.77;7.78;;;19.50;54.10;;;;;;5027155;28;20049;-82
2021/09/21 11:53:14;;;;;;;12.13;7.80;;;19.60;53.00;;;;;;5027293;28;20046;-82
2021/09/21 11:55:52;;;;;;;12.13;7.93;;;19.60;53.30;;;;;;5028481;28;20046;-82
2021/09/21 11:58:23;;;;;;;12.50;7.30;;;19.70;53.90;;;;;;5031220;28;20111;-82
2021/09/21 12:00:53;;;;;;;11.23;7.82;;;19.80;53.50;;;;;;5026657;28;20506;-83
2021/09/21 12:03:23;;;;;;;10.10;6.57;;;19.80;53.60;;;;;;5028636;28;20049;-83
2021/09/21 12:05:52;;;;;;;11.07;7.88;;;19.90;53.20;;;;;;5026701;28;20091;-82
2021/09/21 12:08:24;;;;;;;10.90;6.60;;;19.90;53.00;;;;;;5027754;28;20041;-83
2021/09/21 12:10:54;;;;;;;10.73;7.80;;;19.90;52.60;;;;;;5027177;28;20493;-81
2021/09/21 12:13:27;;;;;;;8.77;7.32;;;19.90;53.00;;;;;;5008672;28;20104;-83
2021/09/21 12:15:57;;;;;;;11.23;7.47;;;19.90;52.00;;;;;;5027206;28;20084;-82
2021/09/21 12:18:26;;;;;;;11.35;7.55;;;20.00;52.20;;;;;;5025745;28;20116;-86
2021/09/21 12:20:58;;;;;;;8.52;6.93;;;20.00;52.10;;;;;;5025657;28;20104;-85
2021/09/21 12:23:27;;;;;;;10.68;7.35;;;20.10;52.30;;;;;;5025997;28;20049;-85
2021/09/21 12:25:56;;;;;;;9.70;7.18;;;20.10;52.80;;;;;;5011303;28;20095;-86
2021/09/21 12:28:31;;;;;;;9.73;7.25;;;20.10;50.80;;;;;;5029904;28;20046;-84
2021/09/21 12:31:08;;;;;;;9.25;6.55;;;20.10;50.90;;;;;;5032718;28;20057;-85
2021/09/21 12:33:36;;;;;;;12.63;7.80;;;20.10;51.60;;;;;;5029098;28;20445;-86
2021/09/21 12:36:04;;;;;;;9.15;7.00;;;20.20;52.30;;;;;;5029243;28;20045;-85
2021/09/21 12:38:31;;;;;;;9.73;7.05;;;20.30;52.90;;;;;;5029185;28;20425;-85
2021/09/21 12:41:01;;;;;;;9.13;6.20;;;20.40;53.20;;;;;;5031066;28;20042;-84
2021/09/21 12:43:45;;;;;;;12.20;7.72;;;20.40;53.20;;;;;;5032586;28;20053;-85
2021/09/21 12:46:11;;;;;;;10.75;7.55;;;20.50;51.50;;;;;;5031815;28;20049;-84
2021/09/21 12:48:42;;;;;;;11.55;6.65;;;20.50;51.70;;;;;;5030614;28;20096;-86